Time;durP1;ratioP1;P1;durP2;ratioP2;P2;SDS_P1;SDS_P2;PMS_P1;PMS_P2;Temp;Humidity;BMP_temperature;BMP_pressure;BME280_temperature;BME280_humidity;BME280_pressure;Samples;Min_cycle;Max_cycle;Signal;HPM_P1;HPM_P2
2022/06/02 00:00:06;;;;;;;4.25;2.05;;;12.20;65.80;;;;;;5028775;28;20131;-82
2022/06/02 00:03:18;;;;;;;5.82;2.13;;;12.10;65.80;;;;;;5028872;28;20049;-83
2022/06/02 00:06:10;;;;;;;4.18;2.20;;;12.10;65.90;;;;;;4951974;29;20103;-83
2022/06/02 00:09:04;;;;;;;3.50;2.10;;;12.00;65.90;;;;;;4952171;28;20122;-82
2022/06/02 00:11:53;;;;;;;3.90;2.30;;;12.00;66.00;;;;;;4952207;28;20448;-82
2022/06/02 00:14:43;;;;;;;4.13;2.20;;;11.90;66.00;;;;;;4952212;29;20102;-82
2022/06/02 00:17:38;;;;;;;4.43;2.63;;;11.90;66.00;;;;;;4952085;28;20059;-82
2022/06/02 00:20:08;;;;;;;4.10;2.20;;;11.90;66.10;;;;;;4952155;28;20105;-83
2022/06/02 00:23:14;;;;;;;4.28;2.22;;;11.90;66.10;;;;;;4952183;28;20473;-82
2022/06/02 00:25:57;;;;;;;5.00;2.70;;;11.80;66.10;;;;;;4911988;29;20052;-83
2022/06/02 00:28:50;;;;;;;5.15;2.65;;;11.80;66.20;;;;;;4895549;29;20052;-83
2022/06/02 00:31:42;;;;;;;3.80;2.45;;;11.70;66.20;;;;;;4913395;29;20052;-83
2022/06/02 00:34:44;;;;;;;4.05;2.63;;;11.70;66.30;;;;;;4908478;29;20059;-82
2022/06/02 00:37:35;;;;;;;10.05;2.90;;;11.70;66.30;;;;;;4898200;29;20123;-82
2022/06/02 00:40:03;;;;;;;4.03;2.60;;;11.70;66.40;;;;;;4913032;29;20096;-82
2022/06/02 00:42:42;;;;;;;6.47;2.80;;;11.60;66.40;;;;;;4915652;29;20051;-83
2022/06/02 00:45:15;;;;;;;3.92;2.58;;;11.60;66.40;;;;;;4950232;28;20464;-82
2022/06/02 00:47:50;;;;;;;5.37;3.03;;;11.60;66.50;;;;;;4934305;28;20123;-84
2022/06/02 00:50:38;;;;;;;4.78;3.20;;;11.50;66.50;;;;;;4950431;29;20110;-84
2022/06/02 00:53:14;;;;;;;5.28;3.40;;;11.50;66.60;;;;;;4934872;29;20099;-84
2022/06/02 00:58:53;;;;;;;5.55;2.97;;;11.40;66.70;;;;;;4948690;28;20389;-83
2022/06/02 01:01:38;;;;;;;4.05;2.75;;;11.40;66.80;;;;;;4951921;28;20051;-83
2022/06/02 01:04:10;;;;;;;4.28;2.95;;;11.40;66.90;;;;;;5012176;28;20133;-83
2022/06/02 01:06:49;;;;;;;4.53;2.75;;;11.40;66.90;;;;;;5011877;28;20046;-83
2022/06/02 01:09:51;;;;;;;3.92;2.53;;;11.40;66.90;;;;;;5011743;28;20108;-83
2022/06/02 01:12:33;;;;;;;6.30;2.92;;;11.30;67.00;;;;;;5013887;28;20050;-82
2022/06/02 01:15:34;;;;;;;4.53;2.63;;;11.30;67.00;;;;;;5039138;28;20150;-83
2022/06/02 01:18:07;;;;;;;4.82;2.97;;;11.30;67.10;;;;;;5005001;28;20050;-83
2022/06/02 01:21:12;;;;;;;5.65;3.25;;;11.20;67.10;;;;;;5011696;28;20038;-83
2022/06/02 01:24:16;;;;;;;4.60;2.92;;;11.20;67.20;;;;;;5027844;28;20099;-82
2022/06/02 01:26:50;;;;;;;4.07;2.78;;;11.20;67.20;;;;;;5011416;28;20084;-82
2022/06/02 01:29:37;;;;;;;4.40;3.00;;;11.20;67.20;;;;;;5027558;28;20123;-83
2022/06/02 01:32:17;;;;;;;4.50;2.75;;;11.10;67.30;;;;;;5011644;28;20096;-83
2022/06/02 01:35:13;;;;;;;5.05;3.20;;;11.10;67.30;;;;;;5027666;28;20124;-83
2022/06/02 01:38:01;;;;;;;5.35;3.30;;;11.10;67.30;;;;;;5028173;28;20111;-83
2022/06/02 01:40:53;;;;;;;6.10;3.17;;;11.00;67.30;;;;;;5025820;28;20054;-82
2022/06/02 01:43:42;;;;;;;5.47;3.42;;;11.00;67.30;;;;;;5029219;28;20062;-84
2022/06/02 01:46:37;;;;;;;4.68;3.00;;;11.00;67.30;;;;;;5016042;28;20406;-83
2022/06/02 01:49:06;;;;;;;5.22;3.20;;;11.00;67.40;;;;;;5032961;28;20187;-85
2022/06/02 01:51:52;;;;;;;5.03;3.08;;;10.90;67.40;;;;;;5031395;28;20049;-83
2022/06/02 01:54:40;;;;;;;4.82;2.88;;;10.90;67.40;;;;;;5031261;28;20049;-83
2022/06/02 01:57:29;;;;;;;8.35;3.50;;;10.90;67.50;;;;;;5030729;28;20491;-83
2022/06/02 02:00:10;;;;;;;5.22;3.13;;;10.80;67.50;;;;;;5023032;28;20046;-83
2022/06/02 02:02:53;;;;;;;5.60;2.90;;;10.80;67.60;;;;;;5004791;28;20141;-83
2022/06/02 02:05:38;;;;;;;5.68;3.13;;;10.80;67.60;;;;;;5015100;28;20046;-83
2022/06/02 02:08:24;;;;;;;8.55;3.38;;;10.70;67.60;;;;;;5000716;28;20104;-83
2022/06/02 02:11:20;;;;;;;5.00;3.20;;;10.70;67.60;;;;;;5014572;28;20116;-83
2022/06/02 02:14:14;;;;;;;5.85;3.35;;;10.70;67.60;;;;;;5028989;28;20438;-85
2022/06/02 02:17:03;;;;;;;4.68;2.97;;;10.70;67.70;;;;;;5013082;28;20053;-83
2022/06/02 02:19:41;;;;;;;5.93;3.42;;;10.60;67.70;;;;;;4999484;28;20097;-83
2022/06/02 02:22:31;;;;;;;4.57;3.17;;;10.60;67.70;;;;;;5015206;28;20096;-82
2022/06/02 02:25:01;;;;;;;6.35;3.78;;;10.60;67.70;;;;;;5014771;28;20089;-83
2022/06/02 02:28:02;;;;;;;6.22;4.25;;;10.50;67.70;;;;;;5014286;28;20053;-84
2022/06/02 02:31:04;;;;;;;5.90;3.50;;;10.50;67.70;;;;;;5014558;28;20457;-84
2022/06/02 02:33:34;;;;;;;4.93;3.75;;;10.40;67.70;;;;;;5015349;28;20410;-84
2022/06/02 02:36:31;;;;;;;6.82;3.70;;;10.40;67.70;;;;;;5013239;28;20542;-84
2022/06/02 02:39:19;;;;;;;5.00;3.63;;;10.40;67.80;;;;;;5014325;28;20054;-83
2022/06/02 02:41:57;;;;;;;5.13;3.47;;;10.40;67.80;;;;;;5013977;28;20050;-83
2022/06/02 02:44:36;;;;;;;5.03;3.40;;;10.30;67.80;;;;;;5014340;28;20042;-83
2022/06/02 02:47:31;;;;;;;5.95;3.78;;;10.30;67.80;;;;;;4999654;28;20529;-83
2022/06/02 02:50:09;;;;;;;5.25;3.58;;;10.30;67.80;;;;;;4998825;28;20045;-82
2022/06/02 02:52:45;;;;;;;5.28;3.50;;;10.20;67.80;;;;;;5014145;28;20046;-82
2022/06/02 02:55:17;;;;;;;5.45;3.80;;;10.20;67.80;;;;;;5012871;28;20053;-83
2022/06/02 02:58:05;;;;;;;6.65;3.75;;;10.20;67.80;;;;;;5013326;28;20096;-83
2022/06/02 03:00:41;;;;;;;5.55;3.60;;;10.10;67.80;;;;;;5013832;28;20045;-83
2022/06/02 03:03:26;;;;;;;5.28;3.50;;;10.20;67.80;;;;;;5013810;28;20173;-82
2022/06/02 03:06:12;;;;;;;5.60;3.47;;;10.10;67.80;;;;;;5013641;28;20054;-83
2022/06/02 03:09:11;;;;;;;5.25;3.83;;;10.00;67.80;;;;;;5013413;28;20049;-83
2022/06/02 03:11:53;;;;;;;5.50;3.63;;;10.00;67.80;;;;;;5013798;28;20058;-83
2022/06/02 03:14:41;;;;;;;5.40;3.80;;;10.00;67.80;;;;;;5013848;28;20046;-82
2022/06/02 03:17:11;;;;;;;5.43;3.63;;;9.90;67.80;;;;;;4998562;28;20042;-82
2022/06/02 03:19:54;;;;;;;5.20;3.70;;;9.90;67.80;;;;;;5013779;28;20045;-84
2022/06/02 03:22:40;;;;;;;5.73;4.00;;;9.90;67.80;;;;;;5030428;28;20573;-83
2022/06/02 03:25:28;;;;;;;5.20;3.80;;;9.90;67.80;;;;;;5011697;28;20045;-84
2022/06/02 03:28:16;;;;;;;4.80;3.53;;;9.80;67.80;;;;;;5033236;28;20096;-83
2022/06/02 03:30:58;;;;;;;5.85;4.00;;;9.80;67.80;;;;;;5012306;28;20045;-83
2022/06/02 03:33:31;;;;;;;5.07;3.95;;;9.80;67.80;;;;;;5013254;28;20083;-82
2022/06/02 03:36:26;;;;;;;5.32;3.92;;;9.70;67.80;;;;;;5013203;28;20506;-83
2022/06/02 03:39:03;;;;;;;7.88;4.32;;;9.70;67.80;;;;;;5012846;28;20049;-83
2022/06/02 03:41:48;;;;;;;6.82;4.60;;;9.60;67.80;;;;;;5012479;28;20168;-83
2022/06/02 03:44:15;;;;;;;10.48;4.90;;;9.60;67.90;;;;;;5013066;28;20100;-83
2022/06/02 03:47:20;;;;;;;6.97;5.05;;;9.60;67.90;;;;;;5013490;28;20053;-84
2022/06/02 03:50:01;;;;;;;7.80;4.97;;;9.60;68.00;;;;;;5012956;28;20066;-84
2022/06/02 03:52:52;;;;;;;11.02;5.20;;;9.50;68.00;;;;;;5009334;28;20053;-84
2022/06/02 03:55:42;;;;;;;9.52;5.03;;;9.50;68.10;;;;;;5013067;28;20058;-83
2022/06/02 03:58:35;;;;;;;6.70;4.70;;;9.50;68.10;;;;;;5011660;28;20041;-83
2022/06/02 04:01:05;;;;;;;7.15;4.97;;;9.50;68.20;;;;;;5012711;28;20084;-83
2022/06/02 04:03:57;;;;;;;8.55;5.00;;;9.40;68.20;;;;;;5012753;28;20060;-84
2022/06/02 04:06:40;;;;;;;6.47;4.82;;;9.40;68.20;;;;;;5012796;28;20566;-83
2022/06/02 04:09:20;;;;;;;6.55;4.85;;;9.40;68.20;;;;;;5012389;28;20050;-83
2022/06/02 04:15:23;;;;;;;8.23;5.15;;;9.40;68.30;;;;;;5028638;28;20049;-83
2022/06/02 04:18:01;;;;;;;6.50;5.30;;;9.40;68.30;;;;;;5012137;28;20111;-83
2022/06/02 04:20:41;;;;;;;7.78;5.60;;;9.30;68.30;;;;;;5012358;28;20484;-83
2022/06/02 04:23:39;;;;;;;6.78;5.47;;;9.30;68.40;;;;;;5028365;28;20081;-83
2022/06/02 04:26:18;;;;;;;11.32;5.80;;;9.30;68.40;;;;;;5028712;28;20046;-83
2022/06/02 04:29:00;;;;;;;7.95;5.43;;;9.20;68.50;;;;;;5028507;28;20591;-83
2022/06/02 04:31:43;;;;;;;8.50;5.18;;;9.20;68.50;;;;;;5014102;28;20119;-83
2022/06/02 04:34:22;;;;;;;7.30;5.65;;;9.20;68.50;;;;;;5030536;28;20057;-83
2022/06/02 04:37:17;;;;;;;7.18;5.30;;;9.20;68.60;;;;;;5027849;28;20426;-83
2022/06/02 04:39:50;;;;;;;7.50;5.75;;;9.20;68.60;;;;;;5028246;28;20045;-83
2022/06/02 04:42:40;;;;;;;10.17;5.43;;;9.10;68.70;;;;;;5028166;28;20053;-83
2022/06/02 04:45:21;;;;;;;7.82;5.47;;;9.20;68.70;;;;;;5028160;28;20049;-83
2022/06/02 04:48:05;;;;;;;7.38;5.68;;;9.10;68.70;;;;;;5027967;28;20061;-83
2022/06/02 04:50:55;;;;;;;7.88;6.30;;;9.10;68.80;;;;;;5019879;28;20103;-83
2022/06/02 04:53:48;;;;;;;9.02;5.82;;;9.10;68.80;;;;;;5012119;28;20050;-83
2022/06/02 04:56:43;;;;;;;6.72;5.80;;;9.10;68.90;;;;;;4976297;28;20474;-83
2022/06/02 04:59:26;;;;;;;11.63;6.15;;;9.10;69.00;;;;;;4975565;28;20042;-83
2022/06/02 05:02:02;;;;;;;8.73;5.72;;;9.10;69.00;;;;;;4989192;28;20050;-83
2022/06/02 05:04:53;;;;;;;7.00;5.88;;;9.10;69.10;;;;;;4990269;28;20569;-83
2022/06/02 05:07:28;;;;;;;8.80;7.13;;;9.10;69.20;;;;;;4990653;28;20042;-83
2022/06/02 05:10:11;;;;;;;8.07;6.40;;;9.10;69.30;;;;;;4990010;28;20399;-83
2022/06/02 05:12:59;;;;;;;8.43;6.25;;;9.10;69.40;;;;;;4988812;28;20058;-83
2022/06/02 05:15:57;;;;;;;8.93;6.57;;;9.10;69.50;;;;;;4988955;28;20050;-83
2022/06/02 05:19:04;;;;;;;7.30;6.10;;;9.20;69.60;;;;;;4988893;28;20085;-83
2022/06/02 05:22:14;;;;;;;9.77;6.00;;;9.20;69.70;;;;;;4990551;28;20050;-83
2022/06/02 05:25:08;;;;;;;7.90;5.97;;;9.20;69.80;;;;;;4993021;28;20129;-83
2022/06/02 05:27:54;;;;;;;7.82;6.05;;;9.20;69.90;;;;;;4992815;28;20054;-83
2022/06/02 05:30:23;;;;;;;10.63;6.38;;;9.30;69.90;;;;;;4992846;28;20117;-83
2022/06/02 05:33:07;;;;;;;9.30;6.43;;;9.30;70.00;;;;;;5000544;28;20116;-83
2022/06/02 05:35:55;;;;;;;9.25;6.88;;;9.40;70.10;;;;;;5015249;28;20042;-83
2022/06/02 05:38:36;;;;;;;8.07;6.05;;;9.40;70.20;;;;;;5015625;28;20111;-83
2022/06/02 05:41:38;;;;;;;10.05;6.75;;;9.40;70.30;;;;;;4999515;28;20049;-83
2022/06/02 05:44:23;;;;;;;9.02;7.15;;;9.40;70.40;;;;;;5001083;28;20529;-83
2022/06/02 05:47:00;;;;;;;8.80;5.63;;;9.50;70.50;;;;;;5012144;28;25260;-82
2022/06/02 05:49:53;;;;;;;8.65;6.53;;;9.50;70.60;;;;;;5012136;28;20062;-85
2022/06/02 05:52:38;;;;;;;7.82;5.85;;;9.60;70.60;;;;;;5018948;28;20058;-82
2022/06/02 05:55:24;;;;;;;7.38;5.53;;;9.70;70.60;;;;;;5019777;28;20085;-83
2022/06/02 05:58:04;;;;;;;8.75;6.32;;;9.70;70.60;;;;;;5014433;28;20056;-83
2022/06/02 06:00:37;;;;;;;9.27;6.75;;;9.80;70.60;;;;;;5015645;28;20104;-84
2022/06/02 06:03:25;;;;;;;8.63;6.40;;;9.90;70.60;;;;;;5014002;28;20050;-83
2022/06/02 06:06:07;;;;;;;8.55;6.75;;;9.90;70.60;;;;;;5015693;28;20046;-84
2022/06/02 06:09:01;;;;;;;7.93;6.60;;;10.00;70.70;;;;;;5015525;28;20042;-84
2022/06/02 06:11:42;;;;;;;10.15;7.78;;;10.10;70.70;;;;;;5015329;28;20044;-83
2022/06/02 06:14:16;;;;;;;11.38;7.63;;;10.20;70.70;;;;;;5009681;28;20042;-84
2022/06/02 06:17:07;;;;;;;10.30;8.10;;;10.40;70.70;;;;;;5012500;28;20042;-84
2022/06/02 06:20:02;;;;;;;10.48;8.07;;;10.40;70.80;;;;;;5026346;28;20505;-84
2022/06/02 06:23:03;;;;;;;10.68;9.10;;;10.50;70.80;;;;;;5026224;28;20053;-84
2022/06/02 06:25:50;;;;;;;10.52;8.65;;;10.60;70.80;;;;;;5029983;28;20057;-83
2022/06/02 06:28:20;;;;;;;13.45;9.40;;;10.70;70.80;;;;;;5018413;28;20046;-83
2022/06/02 06:30:59;;;;;;;11.10;9.77;;;10.80;70.90;;;;;;5014665;28;20054;-83
2022/06/02 06:33:51;;;;;;;14.52;10.05;;;10.90;71.00;;;;;;5015351;28;20054;-83
2022/06/02 06:36:21;;;;;;;13.57;9.77;;;11.10;71.10;;;;;;5014692;28;20173;-83
2022/06/02 06:39:03;;;;;;;13.40;11.30;;;11.20;71.10;;;;;;5014730;28;20808;-83
2022/06/02 06:41:38;;;;;;;13.32;11.07;;;11.30;71.10;;;;;;5014565;28;20037;-83
2022/06/02 06:44:08;;;;;;;14.07;10.23;;;11.40;71.10;;;;;;4997066;28;20577;-83
2022/06/02 06:47:09;;;;;;;14.02;11.05;;;11.40;71.10;;;;;;5015106;28;20050;-82
2022/06/02 06:50:10;;;;;;;14.80;10.88;;;11.60;71.10;;;;;;5028323;28;20107;-82
2022/06/02 06:53:12;;;;;;;15.35;12.15;;;11.70;71.10;;;;;;5028270;28;20053;-82
2022/06/02 06:55:58;;;;;;;15.55;11.75;;;11.90;71.10;;;;;;5028295;28;20049;-82
2022/06/02 06:58:40;;;;;;;15.68;11.98;;;12.00;71.10;;;;;;5030051;28;20461;-82
2022/06/02 07:01:07;;;;;;;17.02;11.95;;;12.10;71.10;;;;;;5017808;28;20053;-81
2022/06/02 07:03:53;;;;;;;18.13;12.13;;;12.20;71.10;;;;;;5014212;28;20050;-83
2022/06/02 07:06:34;;;;;;;16.27;12.13;;;12.30;71.10;;;;;;5015770;28;20104;-82
2022/06/02 07:09:24;;;;;;;15.93;12.50;;;12.40;71.10;;;;;;5014713;28;20049;-82
2022/06/02 07:15:09;;;;;;;17.23;12.30;;;12.60;71.00;;;;;;5014193;28;20041;-83
2022/06/02 07:17:41;;;;;;;17.15;11.45;;;12.70;70.90;;;;;;5014290;28;20049;-82
2022/06/02 07:20:48;;;;;;;14.90;10.82;;;12.80;70.70;;;;;;5014291;28;20076;-82
2022/06/02 07:23:51;;;;;;;15.38;10.77;;;12.90;70.60;;;;;;4998960;28;20046;-84
2022/06/02 07:26:41;;;;;;;17.58;11.48;;;13.00;70.50;;;;;;4999571;28;20426;-82
2022/06/02 07:29:17;;;;;;;12.50;10.07;;;13.10;70.40;;;;;;4997149;28;20042;-83
2022/06/02 07:32:05;;;;;;;13.13;10.15;;;13.20;70.20;;;;;;5012964;28;20089;-84
2022/06/02 07:34:58;;;;;;;12.77;9.73;;;13.30;70.20;;;;;;5025331;28;20053;-83
2022/06/02 07:37:54;;;;;;;12.48;9.38;;;13.40;70.00;;;;;;5025312;28;20050;-83
2022/06/02 07:40:45;;;;;;;12.23;9.93;;;13.50;69.80;;;;;;5017765;28;20052;-83
2022/06/02 07:43:21;;;;;;;13.63;10.18;;;13.70;69.70;;;;;;5016487;28;20549;-83
2022/06/02 07:45:58;;;;;;;14.60;9.20;;;13.80;69.50;;;;;;5014954;28;20050;-83
2022/06/02 07:48:44;;;;;;;13.40;8.90;;;13.90;69.40;;;;;;5013843;28;20054;-83
2022/06/02 07:51:33;;;;;;;15.85;8.48;;;14.00;69.10;;;;;;5013842;28;20046;-83
2022/06/02 07:54:25;;;;;;;12.82;8.07;;;14.10;69.00;;;;;;5013611;28;20054;-83
2022/06/02 07:57:29;;;;;;;11.55;7.65;;;14.20;68.80;;;;;;5013489;28;20092;-83
2022/06/02 08:00:05;;;;;;;9.80;7.50;;;14.30;68.60;;;;;;5013184;28;20061;-83
2022/06/02 08:02:38;;;;;;;11.18;7.38;;;14.40;68.40;;;;;;5012197;28;20076;-83
2022/06/02 08:05:22;;;;;;;11.00;7.30;;;14.50;68.10;;;;;;5009945;28;20466;-82
2022/06/02 08:07:53;;;;;;;10.10;6.65;;;14.50;67.90;;;;;;5011103;28;20045;-82
2022/06/02 08:10:50;;;;;;;10.45;6.55;;;14.60;67.60;;;;;;5017527;28;20514;-83
2022/06/02 08:13:55;;;;;;;9.32;6.05;;;14.80;67.40;;;;;;5016227;28;20099;-82
2022/06/02 08:16:56;;;;;;;9.07;6.20;;;14.80;67.00;;;;;;5017291;28;20100;-83
2022/06/02 08:19:30;;;;;;;9.75;5.88;;;14.90;66.80;;;;;;5012508;28;20046;-82
2022/06/02 08:22:01;;;;;;;10.45;5.45;;;15.00;66.50;;;;;;5025040;28;20097;-82
2022/06/02 08:24:45;;;;;;;7.35;4.55;;;15.10;66.30;;;;;;5011308;28;20057;-82
2022/06/02 08:27:18;;;;;;;10.30;5.05;;;15.20;66.00;;;;;;5013147;28;20096;-83
2022/06/02 08:29:55;;;;;;;8.27;4.90;;;15.30;65.70;;;;;;5012729;28;20053;-83
2022/06/02 08:32:34;;;;;;;7.97;4.70;;;15.40;65.50;;;;;;5011897;28;20096;-82
2022/06/02 08:35:36;;;;;;;7.47;4.60;;;15.40;65.20;;;;;;4993913;28;20112;-82
2022/06/02 08:38:33;;;;;;;7.68;4.38;;;15.50;64.90;;;;;;4994171;28;20478;-83
2022/06/02 08:41:30;;;;;;;6.15;3.95;;;15.60;64.60;;;;;;4993478;28;20045;-83
2022/06/02 08:44:14;;;;;;;8.20;4.60;;;15.60;64.30;;;;;;4992905;28;20078;-82
2022/06/02 08:46:50;;;;;;;7.63;4.05;;;15.70;64.10;;;;;;5024537;28;20045;-83
2022/06/02 08:49:54;;;;;;;6.10;3.92;;;15.70;63.90;;;;;;5015809;28;20077;-83
2022/06/02 08:52:21;;;;;;;;;;;15.70;63.70;;;;;;5016944;28;20046;-82
2022/06/02 08:54:54;;;;;;;6.47;3.60;;;15.80;63.50;;;;;;5012573;28;19921;-83
2022/06/02 08:57:52;;;;;;;6.45;3.95;;;15.80;63.30;;;;;;5011620;28;20470;-83
2022/06/02 09:00:50;;;;;;;6.78;3.40;;;15.90;63.10;;;;;;5013166;28;20076;-83
2022/06/02 09:03:41;;;;;;;6.32;3.60;;;15.90;62.90;;;;;;5013179;28;20056;-83
2022/06/02 09:06:25;;;;;;;6.10;3.35;;;16.00;62.70;;;;;;5013506;28;20076;-83
2022/06/02 09:09:34;;;;;;;5.15;3.08;;;16.00;62.50;;;;;;5013253;28;20045;-82
2022/06/02 09:12:26;;;;;;;5.85;3.05;;;16.10;62.20;;;;;;5012535;28;20513;-82
2022/06/02 09:15:30;;;;;;;7.30;3.42;;;16.20;61.90;;;;;;5013165;28;20153;-83
2022/06/02 09:18:17;;;;;;;6.53;3.23;;;16.30;61.60;;;;;;5013066;28;20054;-83
2022/06/02 09:20:50;;;;;;;5.68;2.60;;;16.40;61.30;;;;;;5013138;28;20464;-82
2022/06/02 09:23:35;;;;;;;7.72;3.08;;;16.40;61.10;;;;;;5011236;28;20041;-82
2022/06/02 09:26:36;;;;;;;5.38;2.78;;;16.40;60.90;;;;;;5009106;28;20698;-83
2022/06/02 09:29:23;;;;;;;8.13;2.80;;;16.50;60.60;;;;;;5009370;28;20053;-83
2022/06/02 09:32:02;;;;;;;7.45;2.92;;;16.60;60.40;;;;;;5009652;28;20085;-82
2022/06/02 09:34:50;;;;;;;5.65;2.72;;;16.70;60.20;;;;;;5025227;28;20052;-83
2022/06/02 09:37:20;;;;;;;4.85;2.35;;;16.80;59.80;;;;;;5003457;28;20050;-83
2022/06/02 09:40:19;;;;;;;4.88;2.47;;;16.90;59.60;;;;;;5011231;28;20050;-83
2022/06/02 09:43:16;;;;;;;5.03;2.30;;;16.90;59.40;;;;;;5012185;28;20506;-83
2022/06/02 09:46:00;;;;;;;5.07;2.17;;;17.00;59.10;;;;;;5013749;28;20057;-83
2022/06/02 09:49:13;;;;;;;4.70;2.20;;;17.10;58.80;;;;;;5012144;28;20078;-83
2022/06/02 09:52:09;;;;;;;5.28;2.10;;;17.20;58.40;;;;;;5012634;28;20050;-83
2022/06/02 09:55:11;;;;;;;5.10;2.10;;;17.30;58.20;;;;;;4953863;28;20243;-83
2022/06/02 09:57:55;;;;;;;4.18;1.90;;;17.40;58.00;;;;;;4893016;29;20264;-82
2022/06/02 10:00:34;;;;;;;4.03;1.85;;;17.40;57.80;;;;;;4893068;29;20418;-83
2022/06/02 10:03:31;;;;;;;4.15;2.13;;;17.50;57.50;;;;;;4892947;29;20097;-83
2022/06/02 10:06:33;;;;;;;3.60;1.83;;;17.70;57.20;;;;;;4893133;29;20153;-83
2022/06/02 10:09:21;;;;;;;5.07;1.73;;;17.80;56.90;;;;;;4894853;29;20143;-85
2022/06/02 10:15:08;;;;;;;6.05;1.70;;;17.90;56.30;;;;;;4896361;29;20057;-86
2022/06/02 10:17:48;;;;;;;4.68;1.55;;;18.00;55.90;;;;;;4896568;29;20494;-84
2022/06/02 10:20:44;;;;;;;4.45;1.95;;;18.10;55.60;;;;;;4896385;29;20085;-84
2022/06/02 10:23:17;;;;;;;3.92;1.80;;;18.20;55.30;;;;;;4896414;29;20052;-84
2022/06/02 10:26:09;;;;;;;4.63;1.80;;;18.30;55.10;;;;;;4895949;29;20088;-84
2022/06/02 10:29:03;;;;;;;6.43;1.98;;;18.40;54.80;;;;;;4894438;29;20057;-84
2022/06/02 10:32:18;;;;;;;6.30;1.77;;;18.40;54.50;;;;;;4916016;29;20115;-84
2022/06/02 10:35:12;;;;;;;4.80;1.63;;;18.40;54.30;;;;;;5005521;28;20536;-85
2022/06/02 10:37:56;;;;;;;3.75;1.50;;;18.50;54.00;;;;;;5004929;28;20049;-84
2022/06/02 10:40:41;;;;;;;4.50;1.88;;;18.60;53.90;;;;;;4996825;28;20050;-85
2022/06/02 10:43:28;;;;;;;3.00;1.50;;;18.70;53.70;;;;;;4997395;28;20474;-84
2022/06/02 10:46:05;;;;;;;3.35;1.50;;;18.80;53.50;;;;;;4993735;28;20509;-84
2022/06/02 10:49:03;;;;;;;3.05;1.50;;;18.90;53.30;;;;;;4992811;28;20097;-85
2022/06/02 10:51:49;;;;;;;4.43;1.75;;;18.90;53.10;;;;;;4992884;28;20122;-85
2022/06/02 10:54:36;;;;;;;6.40;1.88;;;19.10;52.90;;;;;;4994368;28;20082;-85
2022/06/02 10:57:23;;;;;;;3.20;1.67;;;19.10;52.70;;;;;;4992662;28;20526;-84
2022/06/02 11:00:02;;;;;;;3.70;1.60;;;19.20;52.50;;;;;;4992672;28;20588;-84
2022/06/02 11:02:34;;;;;;;4.15;1.70;;;19.30;52.30;;;;;;4994173;28;20065;-85
2022/06/02 11:05:20;;;;;;;4.63;1.30;;;19.40;52.10;;;;;;4979822;28;20128;-85
2022/06/02 11:08:15;;;;;;;3.83;1.60;;;19.40;52.00;;;;;;4996690;28;20490;-85
2022/06/02 11:11:14;;;;;;;5.20;1.50;;;19.40;51.70;;;;;;5014412;28;20057;-85
2022/06/02 11:14:03;;;;;;;4.75;1.50;;;19.50;51.50;;;;;;5027593;28;20053;-84
2022/06/02 11:16:54;;;;;;;6.05;1.73;;;19.60;51.30;;;;;;5024559;28;20395;-85
2022/06/02 11:19:56;;;;;;;3.75;1.40;;;19.70;51.10;;;;;;5017744;28;20100;-85
2022/06/02 11:22:41;;;;;;;3.92;1.40;;;19.80;50.90;;;;;;5017920;28;20053;-85
2022/06/02 11:25:51;;;;;;;4.63;1.50;;;19.80;50.70;;;;;;5025987;28;20740;-84
2022/06/02 11:28:39;;;;;;;4.80;1.90;;;19.90;50.50;;;;;;5017553;28;20119;-84
2022/06/02 11:31:21;;;;;;;3.00;1.40;;;19.90;50.30;;;;;;5019193;28;20042;-84
2022/06/02 11:34:04;;;;;;;4.95;1.50;;;20.00;50.10;;;;;;5013490;28;20522;-84
2022/06/02 11:37:07;;;;;;;3.38;1.27;;;20.10;49.80;;;;;;5013232;28;20045;-84
2022/06/02 11:39:54;;;;;;;3.67;1.50;;;20.10;49.60;;;;;;5012549;28;20050;-84
2022/06/02 11:42:53;;;;;;;3.50;1.30;;;20.20;49.40;;;;;;5015400;28;20054;-84
2022/06/02 11:45:32;;;;;;;3.42;1.23;;;20.30;49.20;;;;;;5013516;28;20465;-84
2022/06/02 11:47:58;;;;;;;3.78;1.23;;;20.30;49.00;;;;;;5013747;28;20053;-84
2022/06/02 11:50:31;;;;;;;3.05;1.30;;;20.40;48.90;;;;;;5012991;28;20103;-85
2022/06/02 11:53:16;;;;;;;6.35;1.70;;;20.40;48.70;;;;;;4994297;28;20050;-84
2022/06/02 11:56:01;;;;;;;2.70;1.30;;;20.40;48.50;;;;;;5024719;28;20502;-84
2022/06/02 11:58:58;;;;;;;3.20;1.40;;;20.50;48.20;;;;;;5025534;28;20099;-84
2022/06/02 12:01:34;;;;;;;3.28;1.40;;;20.60;48.00;;;;;;5024690;28;20045;-84
2022/06/02 12:04:22;;;;;;;2.72;1.20;;;20.60;47.90;;;;;;5014207;28;20057;-84
2022/06/02 12:07:05;;;;;;;2.45;1.35;;;20.60;47.70;;;;;;5012983;28;20053;-84
2022/06/02 12:09:55;;;;;;;3.15;1.33;;;20.70;47.50;;;;;;5013424;28;20050;-84
2022/06/02 12:13:06;;;;;;;4.72;1.30;;;20.80;47.30;;;;;;5013164;28;20050;-84
2022/06/02 12:16:04;;;;;;;3.08;1.17;;;20.80;47.10;;;;;;5014596;28;20494;-84
2022/06/02 12:18:59;;;;;;;3.05;1.20;;;20.90;47.00;;;;;;5013071;28;20053;-84
2022/06/02 12:21:48;;;;;;;4.75;1.30;;;20.90;46.90;;;;;;5012794;28;20053;-84
2022/06/02 12:24:50;;;;;;;2.97;0.95;;;20.90;46.70;;;;;;5013129;28;20112;-84
2022/06/02 12:27:32;;;;;;;4.57;1.40;;;21.00;46.60;;;;;;5013664;28;20046;-84
2022/06/02 12:30:32;;;;;;;5.85;1.48;;;21.00;46.50;;;;;;5013541;28;20053;-84
2022/06/02 12:33:28;;;;;;;2.42;1.10;;;21.10;46.30;;;;;;5013532;28;20049;-84
2022/06/02 12:36:04;;;;;;;2.45;1.10;;;21.10;46.10;;;;;;5013223;28;20461;-84
2022/06/02 12:38:38;;;;;;;5.97;1.50;;;21.20;46.10;;;;;;5013504;28;20045;-84
2022/06/02 12:41:16;;;;;;;;;;;21.20;46.00;;;;;;4995685;28;20101;-84
2022/06/02 12:43:57;;;;;;;3.58;1.30;;;21.20;46.00;;;;;;5011333;28;19928;-84
2022/06/02 12:46:33;;;;;;;4.28;1.70;;;21.30;45.90;;;;;;5014838;28;20446;-84
2022/06/02 12:49:00;;;;;;;3.10;1.40;;;21.40;45.80;;;;;;5013850;28;20524;-84
2022/06/02 12:51:38;;;;;;;5.10;1.40;;;21.40;45.70;;;;;;5013386;28;20053;-84
2022/06/02 12:54:11;;;;;;;3.55;1.40;;;21.40;45.70;;;;;;5013407;28;20072;-84
2022/06/02 12:57:08;;;;;;;4.43;1.40;;;21.40;45.60;;;;;;5013359;28;20104;-84
2022/06/02 12:59:47;;;;;;;6.05;1.15;;;21.50;45.50;;;;;;5013423;28;20041;-84
2022/06/02 13:02:31;;;;;;;4.20;1.50;;;21.50;45.40;;;;;;5011020;28;20042;-84
2022/06/02 13:05:24;;;;;;;3.10;1.30;;;21.60;45.30;;;;;;4990900;28;20046;-84
2022/06/02 13:08:42;;;;;;;2.60;1.15;;;21.60;45.30;;;;;;5024552;28;20046;-84
2022/06/02 13:11:27;;;;;;;3.28;1.30;;;21.70;45.20;;;;;;4995374;28;20093;-84
2022/06/02 13:14:31;;;;;;;4.28;1.45;;;21.80;45.20;;;;;;5009303;28;20046;-84
2022/06/02 13:17:24;;;;;;;4.73;1.60;;;21.80;45.20;;;;;;4993299;28;20049;-84
2022/06/02 13:20:42;;;;;;;3.85;1.48;;;21.80;45.10;;;;;;5023888;28;20054;-84
2022/06/02 13:23:42;;;;;;;3.03;1.20;;;21.90;45.00;;;;;;4993569;28;20062;-84
2022/06/02 13:26:32;;;;;;;3.60;1.30;;;21.90;45.00;;;;;;4993465;28;20047;-84
2022/06/02 13:29:19;;;;;;;2.92;1.15;;;21.90;44.90;;;;;;4991274;28;20050;-84
2022/06/02 13:31:58;;;;;;;3.72;1.50;;;22.00;44.90;;;;;;5023635;28;20057;-84
2022/06/02 13:35:02;;;;;;;4.38;1.50;;;22.00;44.90;;;;;;5021265;28;20100;-84
2022/06/02 13:38:20;;;;;;;3.47;1.45;;;22.10;44.90;;;;;;5025682;28;20494;-84
2022/06/02 13:41:04;;;;;;;3.97;1.48;;;22.20;44.80;;;;;;4984170;28;20054;-84
2022/06/02 13:43:46;;;;;;;3.25;1.33;;;22.20;44.70;;;;;;4988549;28;20053;-84
2022/06/02 13:46:50;;;;;;;4.45;1.40;;;22.30;44.60;;;;;;4977549;28;20082;-84
2022/06/02 13:50:07;;;;;;;5.47;1.40;;;22.40;44.50;;;;;;4963303;28;20051;-85
2022/06/02 13:53:11;;;;;;;4.45;1.60;;;22.40;44.40;;;;;;4988791;28;20105;-84
2022/06/02 13:59:14;;;;;;;2.83;1.20;;;22.40;44.20;;;;;;4989009;28;20105;-84
2022/06/02 14:01:55;;;;;;;2.88;1.15;;;22.40;44.10;;;;;;4988809;28;20050;-84
2022/06/02 14:05:00;;;;;;;6.28;1.40;;;22.50;44.00;;;;;;4978310;28;20101;-84
2022/06/02 14:07:51;;;;;;;4.60;1.50;;;22.50;43.90;;;;;;4989475;28;20085;-85
2022/06/02 14:10:24;;;;;;;3.92;1.50;;;22.50;43.80;;;;;;4977751;28;20051;-84
2022/06/02 14:13:19;;;;;;;3.72;1.60;;;22.50;43.80;;;;;;4977228;28;20055;-84
2022/06/02 14:16:09;;;;;;;5.05;1.48;;;22.60;43.70;;;;;;5011823;28;20050;-84
2022/06/02 14:19:03;;;;;;;4.82;1.90;;;22.60;43.70;;;;;;5016920;28;20056;-84
2022/06/02 14:21:51;;;;;;;5.78;1.50;;;22.60;43.60;;;;;;5015372;28;20054;-84
2022/06/02 14:24:41;;;;;;;3.72;1.50;;;22.60;43.60;;;;;;5015475;28;20445;-85
2022/06/02 14:27:49;;;;;;;2.72;1.30;;;22.60;43.50;;;;;;5015155;28;20530;-84
2022/06/02 14:30:22;;;;;;;6.63;1.60;;;22.70;43.50;;;;;;5014988;28;20046;-84
2022/06/02 14:33:05;;;;;;;5.22;1.85;;;22.70;43.50;;;;;;5015118;28;20056;-85
2022/06/02 14:35:47;;;;;;;4.72;1.70;;;22.70;43.40;;;;;;5015351;28;20045;-85
2022/06/02 14:38:33;;;;;;;5.28;1.77;;;22.80;43.40;;;;;;5014152;28;20051;-84
2022/06/02 14:41:31;;;;;;;5.18;1.60;;;22.70;43.30;;;;;;4995298;28;20050;-84
2022/06/02 14:44:28;;;;;;;3.60;1.50;;;22.80;43.30;;;;;;4995036;28;20046;-84
2022/06/02 14:47:17;;;;;;;4.82;1.58;;;22.80;43.20;;;;;;5026918;28;20104;-84